createdAt,value
2023-05-22T00:00:03.085Z,9.08
2023-05-22T00:05:06.960Z,8.95
2023-05-22T00:10:10.913Z,8.82
2023-05-22T00:15:14.014Z,8.69
2023-05-22T00:20:17.343Z,8.55
2023-05-22T00:25:20.857Z,8.42
2023-05-22T00:30:23.958Z,8.31
2023-05-22T00:35:27.069Z,8.17
2023-05-22T00:40:30.283Z,8.07
2023-05-22T00:45:33.295Z,7.98
2023-05-22T00:50:36.609Z,7.89
2023-05-22T00:55:40.286Z,7.79
2023-05-22T01:00:43.740Z,7.73
2023-05-22T01:05:46.754Z,7.68
2023-05-22T01:11:01.670Z,7.60
2023-05-22T01:16:30.141Z,7.52
2023-05-22T01:21:47.820Z,7.47
2023-05-22T01:27:08.625Z,7.45
2023-05-22T01:32:16.639Z,7.39
2023-05-22T01:37:22.820Z,7.34
2023-05-22T01:42:26.171Z,7.29
2023-05-22T01:47:29.367Z,7.26
2023-05-22T01:52:43.924Z,7.26
2023-05-22T01:57:59.867Z,7.27
2023-05-22T02:03:09.245Z,7.23
2023-05-22T02:08:14.754Z,7.16
2023-05-22T02:13:18.487Z,7.15
2023-05-22T02:18:29.728Z,7.20
2023-05-22T02:23:32.991Z,7.21
2023-05-22T02:28:36.100Z,7.17
2023-05-22T02:33:39.207Z,7.18
2023-05-22T02:38:42.323Z,7.29
2023-05-22T02:43:45.426Z,7.41
2023-05-22T02:48:48.539Z,7.52
2023-05-22T02:53:52.573Z,7.63
2023-05-22T02:58:57.136Z,7.77
2023-05-22T03:04:00.306Z,7.99
2023-05-22T03:09:04.601Z,8.45
2023-05-22T03:14:07.861Z,8.84
2023-05-22T03:19:15.713Z,9.52
2023-05-22T03:24:19.109Z,10.68
2023-05-22T03:29:22.342Z,11.62
2023-05-22T03:34:27.309Z,11.76
2023-05-22T03:39:30.587Z,11.95
2023-05-22T03:44:33.795Z,12.69
2023-05-22T03:49:36.800Z,13.35
2023-05-22T03:54:39.908Z,14.51
2023-05-22T03:59:42.927Z,16.17
2023-05-22T04:04:49.159Z,17.94
2023-05-22T04:09:52.403Z,19.49
2023-05-22T04:14:55.659Z,20.46
2023-05-22T04:19:58.810Z,20.97
2023-05-22T04:25:01.765Z,21.27
2023-05-22T04:30:07.478Z,21.28
2023-05-22T04:35:12.510Z,21.23
2023-05-22T04:40:16.420Z,21.53
2023-05-22T04:45:21.445Z,22.55
2023-05-22T04:50:25.165Z,23.08
2023-05-22T04:55:28.482Z,23.29
2023-05-22T05:00:32.605Z,23.58
2023-05-22T05:05:36.028Z,23.80
2023-05-22T05:10:39.542Z,24.08
2023-05-22T05:15:42.967Z,24.19
2023-05-22T05:20:46.438Z,24.33
2023-05-22T05:25:49.799Z,24.04
2023-05-22T05:30:53.006Z,23.66
2023-05-22T05:35:56.424Z,23.24
2023-05-22T05:40:59.550Z,22.80
2023-05-22T05:46:02.770Z,22.86
2023-05-22T05:51:05.969Z,23.08
2023-05-22T05:56:09.947Z,23.12
2023-05-22T06:01:13.422Z,23.08
2023-05-22T06:06:17.745Z,22.86
2023-05-22T06:11:22.415Z,22.61
2023-05-22T06:16:26.615Z,22.38
2023-05-22T06:21:29.839Z,21.94
2023-05-22T06:26:33.611Z,21.65
2023-05-22T06:31:38.768Z,21.41
2023-05-22T06:36:42.493Z,21.29
2023-05-22T06:41:45.858Z,21.47
2023-05-22T06:46:49.382Z,21.79
2023-05-22T06:51:52.816Z,22.28
2023-05-22T06:56:57.752Z,23.04
2023-05-22T07:02:01.161Z,23.93
2023-05-22T07:07:04.475Z,24.51
2023-05-22T07:12:08.543Z,25.19
2023-05-22T07:17:11.826Z,25.77
2023-05-22T07:22:15.593Z,26.23
2023-05-22T07:27:18.858Z,26.53
2023-05-22T07:32:22.425Z,26.65
2023-05-22T07:37:25.805Z,26.78
2023-05-22T07:42:30.432Z,26.92
2023-05-22T07:47:33.596Z,27.07
2023-05-22T07:52:36.855Z,27.25
2023-05-22T07:57:39.973Z,27.44
2023-05-22T08:02:44.071Z,27.84
2023-05-22T08:07:47.300Z,28.13
2023-05-22T08:12:50.537Z,28.39
2023-05-22T08:17:53.853Z,28.29
2023-05-22T08:22:57.152Z,28.41
2023-05-22T08:28:00.251Z,28.48
2023-05-22T08:33:03.477Z,28.23
2023-05-22T08:38:06.775Z,28.33
2023-05-22T08:43:09.890Z,27.99
2023-05-22T08:48:14.206Z,28.22
2023-05-22T08:53:19.180Z,28.16
2023-05-22T08:58:22.514Z,27.73
2023-05-22T09:03:29.084Z,26.98
2023-05-22T09:08:32.501Z,26.37
2023-05-22T09:13:38.895Z,25.74
2023-05-22T09:18:42.778Z,25.24
2023-05-22T09:23:51.108Z,25.09
2023-05-22T09:28:54.256Z,25.02
2023-05-22T09:33:57.595Z,24.88
2023-05-22T09:39:01.961Z,24.92
2023-05-22T09:44:16.312Z,25.10
2023-05-22T09:49:19.795Z,25.14
2023-05-22T09:54:26.368Z,24.75
2023-05-22T09:59:31.588Z,24.42
2023-05-22T10:04:35.065Z,24.54
2023-05-22T10:09:40.908Z,24.83
2023-05-22T10:14:44.150Z,25.02
2023-05-22T10:19:47.576Z,25.04
2023-05-22T10:24:52.326Z,25.06
2023-05-22T10:30:04.063Z,25.18
2023-05-22T10:35:38.878Z,25.33
2023-05-22T10:40:45.498Z,25.42
2023-05-22T10:45:48.809Z,25.69
2023-05-22T10:50:54.868Z,25.82
2023-05-22T10:56:02.786Z,25.16
2023-05-22T11:01:11.153Z,24.64
2023-05-22T11:06:32.559Z,24.79
2023-05-22T11:11:35.666Z,25.28
2023-05-22T11:16:39.521Z,25.68
2023-05-22T11:21:47.007Z,25.97
2023-05-22T11:27:06.910Z,25.92
2023-05-22T11:32:12.257Z,25.34
2023-05-22T11:37:16.506Z,24.72
2023-05-22T11:42:20.230Z,24.33
2023-05-22T11:47:23.469Z,24.15
2023-05-22T11:52:32.757Z,24.12
2023-05-22T11:57:36.963Z,24.20
2023-05-22T12:02:46.819Z,24.32
2023-05-22T12:07:50.498Z,24.67
2023-05-22T12:12:54.864Z,25.17
2023-05-22T12:17:58.165Z,25.78
2023-05-22T12:23:01.402Z,26.15
2023-05-22T12:28:07.147Z,26.18
2023-05-22T12:33:14.435Z,25.85
2023-05-22T12:38:21.382Z,25.43
2023-05-22T12:43:25.702Z,25.12
2023-05-22T12:48:29.000Z,24.94
2023-05-22T12:53:32.117Z,24.86
2023-05-22T12:58:35.330Z,24.75
2023-05-22T13:03:38.441Z,24.71
2023-05-22T13:08:41.751Z,24.64
2023-05-22T13:13:44.854Z,24.56
2023-05-22T13:18:48.221Z,24.60
2023-05-22T13:23:51.845Z,24.87
2023-05-22T13:28:55.102Z,25.31
2023-05-22T13:33:59.148Z,25.81
2023-05-22T13:39:03.058Z,26.31
2023-05-22T13:44:06.521Z,26.75
2023-05-22T13:49:09.691Z,27.11
2023-05-22T13:54:13.011Z,27.18
2023-05-22T13:59:16.111Z,27.09
2023-05-22T14:04:19.427Z,26.78
2023-05-22T14:09:22.740Z,26.53
2023-05-22T14:14:26.057Z,25.97
2023-05-22T14:19:29.334Z,25.43
2023-05-22T14:24:32.471Z,24.99
2023-05-22T14:29:35.925Z,24.66
2023-05-22T14:34:39.717Z,24.39
2023-05-22T14:39:42.828Z,24.32
2023-05-22T14:44:46.346Z,24.33
2023-05-22T14:49:49.456Z,24.29
2023-05-22T14:54:52.564Z,24.32
2023-05-22T14:59:55.875Z,24.47
2023-05-22T15:04:58.907Z,24.81
2023-05-22T15:10:02.509Z,25.01
2023-05-22T15:15:06.295Z,24.99
2023-05-22T15:20:10.630Z,24.91
2023-05-22T15:25:15.554Z,24.89
2023-05-22T15:30:20.792Z,24.87
2023-05-22T15:35:25.422Z,24.86
2023-05-22T15:40:28.438Z,24.78
2023-05-22T15:45:32.098Z,24.61
2023-05-22T15:50:35.358Z,24.48
2023-05-22T15:55:38.792Z,24.36
2023-05-22T16:00:42.096Z,24.16
2023-05-22T16:05:47.252Z,24.08
2023-05-22T16:10:50.359Z,23.95
2023-05-22T16:15:53.804Z,23.74
2023-05-22T16:20:56.885Z,23.55
2023-05-22T16:26:00.198Z,23.39
2023-05-22T16:31:03.540Z,23.20
2023-05-22T16:36:07.199Z,23.05
2023-05-22T16:41:10.344Z,22.96
2023-05-22T16:46:13.482Z,22.89
2023-05-22T16:51:16.878Z,22.82
2023-05-22T16:56:21.106Z,22.77
2023-05-22T17:01:24.486Z,22.79
2023-05-22T17:06:29.494Z,22.86
2023-05-22T17:11:33.214Z,22.86
2023-05-22T17:16:38.101Z,22.81
2023-05-22T17:21:41.466Z,22.72
2023-05-22T17:26:44.886Z,22.43
2023-05-22T17:31:48.292Z,22.16
2023-05-22T17:36:51.613Z,21.84
2023-05-22T17:41:54.719Z,21.54
2023-05-22T17:46:58.038Z,21.28
2023-05-22T17:52:01.144Z,21.05
2023-05-22T17:57:04.788Z,20.85
2023-05-22T18:02:09.799Z,20.68
2023-05-22T18:07:13.549Z,20.52
2023-05-22T18:12:31.063Z,20.32
2023-05-22T18:17:35.420Z,20.10
2023-05-22T18:22:40.144Z,19.87
2023-05-22T18:27:43.519Z,19.64
2023-05-22T18:32:46.740Z,19.42
2023-05-22T18:37:49.910Z,19.23
2023-05-22T18:42:53.122Z,19.05
2023-05-22T18:47:56.372Z,18.86
2023-05-22T18:52:59.692Z,18.61
2023-05-22T18:58:03.278Z,18.39
2023-05-22T19:03:06.656Z,18.15
2023-05-22T19:08:10.003Z,17.96
2023-05-22T19:13:13.117Z,17.85
2023-05-22T19:18:16.525Z,17.75
2023-05-22T19:23:19.638Z,17.64
2023-05-22T19:28:23.345Z,17.52
2023-05-22T19:33:27.181Z,17.41
2023-05-22T19:38:31.390Z,17.32
2023-05-22T19:43:35.069Z,17.22
2023-05-22T19:48:38.261Z,17.12
2023-05-22T19:53:41.872Z,17.03
2023-05-22T19:58:45.320Z,16.92
2023-05-22T20:03:48.626Z,16.82
2023-05-22T20:08:51.926Z,16.72
2023-05-22T20:13:55.696Z,16.61
2023-05-22T20:18:58.965Z,16.45
2023-05-22T20:24:06.130Z,16.29
2023-05-22T20:29:09.577Z,16.08
2023-05-22T20:34:12.890Z,15.87
2023-05-22T20:39:16.515Z,15.65
2023-05-22T20:44:23.763Z,15.49
2023-05-22T20:49:28.292Z,15.31
2023-05-22T20:54:34.815Z,15.07
2023-05-22T20:59:38.365Z,14.82
2023-05-22T21:04:41.681Z,14.57
2023-05-22T21:09:45.008Z,14.36
2023-05-22T21:14:48.424Z,14.20
2023-05-22T21:19:51.724Z,14.06
2023-05-22T21:24:55.048Z,13.95
2023-05-22T21:29:58.156Z,13.84
2023-05-22T21:35:01.259Z,13.73
2023-05-22T21:40:04.900Z,13.60
2023-05-22T21:45:08.717Z,13.48
2023-05-22T21:50:12.138Z,13.36
2023-05-22T21:55:15.807Z,13.26
2023-05-22T22:00:19.308Z,13.19
2023-05-22T22:05:22.368Z,13.13
2023-05-22T22:10:25.596Z,13.11
2023-05-22T22:15:28.792Z,13.08
2023-05-22T22:20:44.124Z,13.01
2023-05-22T22:25:49.483Z,12.88
2023-05-22T22:30:55.328Z,12.75
2023-05-22T22:35:58.836Z,12.60
2023-05-22T22:41:02.055Z,12.46
2023-05-22T22:46:05.606Z,12.32
2023-05-22T22:51:09.813Z,12.14
2023-05-22T22:56:13.132Z,11.97
2023-05-22T23:01:16.251Z,11.82
2023-05-22T23:06:19.643Z,11.70
2023-05-22T23:11:22.760Z,11.61
2023-05-22T23:16:26.013Z,11.49
2023-05-22T23:21:29.377Z,11.38
2023-05-22T23:26:33.671Z,11.28
2023-05-22T23:31:37.323Z,11.18
2023-05-22T23:36:40.552Z,11.08
2023-05-22T23:41:44.684Z,10.99
2023-05-22T23:46:50.144Z,10.88
2023-05-22T23:51:53.253Z,10.76
2023-05-22T23:56:56.264Z,10.62
